This is the latest recevied weather packets stored in our database for station/object WP3XM. If no packets are shown the sender has not sent any weather packets the latest 10 day(s).
| Time | Temp. | Humidity | Pressure | Rain* | Wind** | Luminosity | Snow |
|---|---|---|---|---|---|---|---|
| 1777735583 | 29.44° C | 70% | 1018.5 hPa | 0 mm | - | 243 W/m² | - |
| 1777735281 | 30° C | 70% | 1018.7 hPa | 0 mm | - | 1031 W/m² | - |
| 1777734978 | 29.44° C | 71% | 1018.7 hPa | 0 mm | - | 1080 W/m² | - |
| 1777734675 | 29.44° C | 71% | 1018.9 hPa | 0 mm | - | 1022 W/m² | - |
| 1777734373 | 28.89° C | 76% | 1018.6 hPa | 0 mm | - | 1080 W/m² | - |
| 1777734068 | 28.89° C | 77% | 1018.8 hPa | 0 mm | - | 420 W/m² | - |
| 1777733765 | 28.33° C | 77% | 1018.8 hPa | 0 mm | - | 1106 W/m² | - |
| 1777733462 | 28.89° C | 75% | 1018.9 hPa | 0 mm | - | 626 W/m² | - |
| 1777733158 | 28.33° C | 77% | 1018.9 hPa | 0 mm | - | 266 W/m² | - |
| 1777732855 | 28.33° C | 76% | 1018.8 hPa | 0 mm | - | 328 W/m² | - |
| 1777732551 | 28.89° C | 72% | 1018.8 hPa | 0 mm | - | 296 W/m² | - |
| 1777732250 | 28.89° C | 71% | 1018.6 hPa | 0 mm | - | 393 W/m² | - |
| 1777731946 | 28.89° C | 71% | 1018.6 hPa | 0 mm | - | 311 W/m² | - |
| 1777731643 | 29.44° C | 70% | 1018.6 hPa | 0 mm | - | 366 W/m² | - |
| 1777731340 | 29.44° C | 70% | 1018.8 hPa | 0 mm | - | 960 W/m² | - |
| 1777731038 | 28.89° C | 71% | 1018.6 hPa | 0 mm | - | 915 W/m² | - |
| 1777730736 | 28.89° C | 72% | 1018.8 hPa | 0 mm | - | 457 W/m² | - |
| 1777730432 | 28.33° C | 74% | 1018.6 hPa | 0 mm | - | 945 W/m² | - |
| 1777730128 | 28.33° C | 74% | 1018.8 hPa | 0 mm | - | 478 W/m² | - |
| 1777729825 | 28.33° C | 74% | 1018.8 hPa | 0 mm | - | 483 W/m² | - |
| 1777729521 | 28.33° C | 74% | 1018.6 hPa | 0 mm | - | 578 W/m² | - |
| 1777729219 | 28.33° C | 75% | 1018.9 hPa | 0 mm | - | 391 W/m² | - |
| 1777728915 | 27.78° C | 76% | 1018.8 hPa | 0 mm | - | 313 W/m² | - |
| 1777728612 | 27.78° C | 76% | 1018.6 hPa | 0 mm | - | 795 W/m² | - |
| 1777728309 | 28.33° C | 75% | 1018.5 hPa | 0 mm | - | 864 W/m² | - |
* Rain latest hour (hover to see other rain measurements)
** Current wind speed in m/s (hover to see current wind gust speed)